NWS Home NWS Lubbock West Texas Mesonet Latest Conditions as of 0608 AM, Tue Oct 24, 2017

Latest   N   C   S   Daily Sum   3hrΔ   24hrΔ   Soil Data 
Site Map   24hr Precip   72hr Precip   Google Plot


Station Time of Last Temp Dew Pt. RH Wind Direction Wind Speed Wind Gust Max Wind Max Temp Min Temp Max RH Min RH Altimeter 1HR Rain Today's Rain Solar Rad Wind Chill
Abernathy 5ENE  06:00 AM 41 31 68% N911 13 mph 17° @ 0110 AM 47 41 74 66 30.48" 0 0 0  
Aiken 3WSW  06:00 AM 37 29 75% NW66 11 mph 17° @ 0113 AM 48 36 79 56 30.48" 0 0 0  
Amarillo 15NNW   06:00 AM 43 32 65% SW55 13 mph 350° @ 1253 AM 46 41 65 44 30.50" 0 0 0  
Amarillo 7SSE  06:00 AM 37 27 66% W78 12 mph 4° @ 1211 AM 47 36 67 44 30.50" 0 0 0  
Amarillo 9NNE  06:00 AM 41 31 66% NE01 6 mph 178° @ 0359 AM 41 33 95 66 30.50" 0 0 0  
Amherst 1NE  06:00 AM 38 31 76% NW910 17 mph 24° @ 0105 AM 50 38 77 48 30.49" 0 0 0  
Andrews 2E  06:00 AM 43 30 61% N89 22 mph 43° @ 1205 AM 59 43 61 42 30.47" 0 0 0  
Anton 6SSW  06:00 AM 37 30 76% NW89 16 mph 23° @ 1255 AM 52 37 78 53 30.48" 0 0 0  
Aspermont 3NE  06:00 AM 44 30 59% W34 14 mph 22° @ 1205 AM 60 44 70 38 30.41" 0 0 0  
Big Bend NP - Persimmon Gap  06:00 AM 62 38 40% NE2327 36 mph 33° @ 0529 AM 70 62 58 34 30.38" 0 0 0  
Big Lake 1WNW  06:00 AM 49 41 73% N46 16 mph 35° @ 1206 AM 62 49 73 47 30.42" 0 0 0  
Bootleg 11WNW  06:00 AM 36 26 66% NW88 13 mph 359° @ 0315 AM 42 36 70 60 30.53" 0 0 0  
Boys Ranch 1WSW  06:00 AM 41 29 63% W69 11 mph 287° @ 0502 AM 47 39 68 45 30.52" 0 0 0  
Brownfield 2S  06:00 AM 46 28 51% N811 17 mph 31° @ 0210 AM 56 46 51 41 30.48" 0 0 0  
Caprock Canyons State Park  06:00 AM 54 19 25% N1417 22 mph 351° @ 0558 AM 55 53 41 25 30.45" 0 0 0  
Childress 2NNE  06:00 AM 48 25 40% NW1114 16 mph 332° @ 0550 AM 51 47 56 38 30.42" 0 0 0  
Clarendon 2WSW  06:00 AM 41 27 57% NW910 12 mph 311° @ 0400 AM 46 40 62 47 30.45" 0 0 0  
Claude 12SW  06:00 AM 42 26 52% NW1011 14 mph 308° @ 0554 AM 45 40 62 51 30.47" 0 0 0  
Clyde 2WNW  06:00 AM 44 40 87% NW67 26 mph 43° @ 0137 AM 61 44 87 39 30.39" 0 0 0  
Colorado City 5NW  06:00 AM 42 31 63% N88 18 mph 20° @ 0246 AM 57 42 64 46 30.44" 0 0 0  
Coyanosa 2N  06:00 AM 51 39 62% N66 20 mph 72° @ 1220 AM 66 51 65 34 30.47" 0 0 0  
Crowell 1E  06:00 AM 52 28 40% NW810 15 mph 332° @ 0306 AM 58 50 50 38 30.40" 0 0 0  
Dell City  06:00 AM 52 38 57% NW910 20 mph 24° @ 0359 AM 64 52 57 36 30.43" 0 0 0  
Denver City 7WNW  06:00 AM 41 31 67% N89 20 mph 34° @ 1220 AM 53 41 70 52 30.49" 0 0 0  
Dimmitt 2NE  06:00 AM 36 29 77% NW79 12 mph 5° @ 1230 AM 45 35 79 60 30.49" 0 0 0  
Dora NM 2SW  06:00 AM 38 29 72% NW66 13 mph 40° @ 1255 AM 47 37 76 63 30.51" 0 0 0  
Dozier 3W  06:00 AM 48 25 41% NW1013 16 mph 313° @ 0217 AM 54 44 48 33 30.43" 0 0 0  
Endee NM 2SW  06:00 AM 32 29 86% SW44 8 mph 33° @ 1203 AM 42 32 90 71 30.53" 0 0 0  
Floydada 2NNE  06:00 AM 36 29 76% NW89 15 mph 8° @ 0130 AM 51 36 76 42 30.46" 0 0 0  
Fluvanna 3WNW  06:00 AM 49 23 36% N1114 22 mph 22° @ 0305 AM 57 49 48 34 30.44" 0 0 0  
Fort Chadbourne  06:00 AM 55 29 38% N56 22 mph 39° @ 0142 AM 63 54 55 38 30.40" 0 0 0  
Fort Lancaster  06:00 AM 59 36 41% NE68 28 mph 44° @ 0158 AM 69 59 50 36 30.40" 0 0 0  
Fort Lewis CO  06:00 AM 38 15 39% N23 18 mph 15° @ 0135 AM 53 33 48 26 30.52" 0 0 0  
Fort McKavett  06:00 AM 52 41 66% NE45 25 mph 35° @ 1233 AM 65 52 66 50 30.38" 0 0 0  
Friona 2NE  06:00 AM 36 28 74% NW56 15 mph 28° @ 1215 AM 47 36 78 55 30.51" 0 0 0  
Gail 2ESE  06:00 AM 46 27 48% N56 18 mph 28° @ 1225 AM 58 46 52 41 30.44" 0 0 0  
Goodlett 3W  06:00 AM 46 29 50% NW1013 19 mph 317° @ 0510 AM 53 46 54 37 30.40" 0 0 0  
Goodnight  06:00 AM 42 28 59% W1113 16 mph 334° @ 0228 AM 46 40 61 46 30.47" 0 0 0  
Graham 5SSW  04:55 AM 48 27 43% N1516 25 mph 21° @ 1225 AM 57 48 50 40 30.44" 0 0 0  
Guadalupe Mtns Natl Park  06:00 AM 46 30 55% NE1416 27 mph 39° @ 0249 AM 57 46 59 39 30.54" 0 0 0  
Guthrie 10WSW  06:00 AM 49 25 40% N710 13 mph 4° @ 0105 AM 53 49 59 39 30.41" 0 0 0  
Happy 1E  06:00 AM 38 28 65% NW910 14 mph 347° @ 0502 AM 44 38 73 58 30.49" 0 0 0  
Hart 3N  06:00 AM 36 29 77% NW67 15 mph 11° @ 1255 AM 47 36 77 58 30.49" 0 0 0  
Haskell 1NW  06:00 AM 43 34 73% NW88 13 mph 357° @ 0145 AM 54 42 76 66 30.39" 0 0 0  
Hereford 2NW  06:00 AM 34 27 76% NW67 11 mph 346° @ 0310 AM 43 34 76 61 30.50" 0 0 0 29
Hobbs NM 5NW  06:00 AM 43 32 65% N89 19 mph 43° @ 0107 AM 54 43 66 50 30.51" 0 0 0  
Jayton 1SSE  06:00 AM 49 23 37% NW56 17 mph 13° @ 0205 AM 58 49 51 37 30.42" 0 0 0  
Junction 1SSW  06:00 AM 54 41 62% N33 19 mph 23° @ 1256 AM 66 54 81 51 30.37" 0 0 0  
Knox City 3NW  06:00 AM 48 28 46% NW56 17 mph 10° @ 0105 AM 58 48 56 41 30.40" 0 0 0  
Lake Alan Henry 1NW  06:00 AM 47 24 40% N79 19 mph 25° @ 0113 AM 58 47 44 35 30.44" 0 0 0  
Lamesa 2SE  06:00 AM 45 30 54% N68 20 mph 39° @ 0305 AM 58 45 55 35 30.47" 0 0 0  
Levelland 4S  06:00 AM 39 28 65% NW77 18 mph 29° @ 0145 AM 52 39 65 46 30.49" 0 0 0  
Lomax 1SSE  06:00 AM 48 32 54% N67 23 mph 31° @ 0144 AM 61 48 56 42 30.45" 0 0 0  
Lubbock 3WNW TTU  06:00 AM 42 29 60% N58 18 mph 25° @ 1255 AM 55 42 62 43 30.48" 0 0 0  
McCamey 1SSW  06:00 AM 57 36 45% NE710 31 mph 55° @ 0213 AM 65 57 54 39 30.43" 0 0 0  
McLean 1E  06:00 AM 41 24 50% NW1216 18 mph 326° @ 0525 AM 45 39 56 46 30.42" 0 0 0  
Memphis 1NE  06:00 AM 47 25 42% NW811 14 mph 320° @ 0410 AM 52 46 46 34 30.43" 0 0 0  
Menard 2NW   06:00 AM 52 40 62% E00 27 mph 28° @ 1217 AM 65 52 62 50 30.38" 0 0 0  
Mertzon 3NNE  06:00 AM 48 37 65% N88 15 mph 29° @ 0318 AM 62 48 70 50 30.42" 0 0 0  
Morton 1ENE  06:00 AM 38 30 73% NW67 15 mph 31° @ 0140 AM 52 38 74 48 30.50" 0 0 0  
Muleshoe 2SSW  06:00 AM 34 30 85% NW55 13 mph 19° @ 1235 AM 48 34 86 58 30.50" 0 0 0 29
New Home  06:00 AM 41 28 61% N56 17 mph 39° @ 1222 AM 55 41 61 45 30.48" 0 0 0  
Northfield 1S  05:10 AM 45 30 55% W810 17 mph 14° @ 1205 AM 56 44 58 34 30.43" 0 0 0  
O'Donnell 1N  06:00 AM 45 28 53% N811 23 mph 25° @ 0145 AM 55 45 53 40 30.46" 0 0 0  
Odell 4ENE  06:00 AM 46 31 56% NW1010 12 mph 324° @ 0547 AM 49 45 74 56 30.40" 0 0 0  
Olton 6S  06:00 AM 36 30 78% NW99 13 mph 13° @ 1240 AM 47 35 79 56 30.48" 0 0 0  
Paducah 10SW  06:00 AM 47 28 47% NW1113 17 mph 354° @ 1215 AM 54 47 56 45 30.42" 0 0 0  
Palo Duro Canyon SP Floor  06:00 AM 39 29 66% NW24 7 mph 306° @ 0423 AM 51 39 69 43 30.49" 0 0 0  
Palo Duro Canyon State Park Rim  06:00 AM 40 26 58% NW1012 17 mph 359° @ 1204 AM 50 40 58 38 30.50" 0 0 0  
Pampa 2E  06:00 AM 42 24 50% NW1417 17 mph 324° @ 0525 AM 45 41 53 46 30.44" 0 0 0  
Panhandle 1SSW  06:00 AM 43 29 56% NW1213 14 mph 321° @ 0551 AM 48 40 67 42 30.48" 0 0 0  
Plains 3N  06:00 AM 40 30 66% N810 18 mph 32° @ 0205 AM 53 40 69 49 30.49" 0 0 0  
Plainview 1S  06:00 AM 41 30 64% NW68 19 mph 15° @ 1230 AM 51 41 65 45 30.47" 0 0 0  
Post 1NE  06:00 AM 45 27 49% NW910 18 mph 8° @ 0155 AM 57 45 49 32 30.45" 0 0 0  
Ralls 1SE  06:00 AM 40 27 61% NW78 13 mph 20° @ 0105 AM 52 40 61 43 30.47" 0 0 0  
Reese Center  06:00 AM 39 31 74% NW77 17 mph 36° @ 1205 AM 53 39 74 49 30.48" 0 0 0  
Roaring Springs 3N  06:00 AM 49 25 40% NW1521 22 mph 10° @ 1225 AM 54 48 55 40 --0 0 0  
San Angelo 7NW  06:00 AM 50 34 56% N45 18 mph 41° @ 1225 AM 64 48 59 41 30.40" 0 0 0  
Seagraves 1SW  06:00 AM 41 31 69% N68 18 mph 25° @ 0230 AM 56 41 70 48 30.48" 0 0 0  
Seminole 2NNE  06:00 AM 44 30 58% N89 20 mph 42° @ 0100 AM 56 44 63 46 30.47" 0 0 0  
Seymour 3NW  06:00 AM 50 34 54% NW810 17 mph 311° @ 0535 AM 59 50 61 51 30.38" 0 0 0  
Sierra Blanca 1SSE  06:00 AM 54 36 52% E1822 23 mph 101° @ 0551 AM 61 53 53 34 30.45" 0 0 0  
Silverton 7ESE  06:00 AM 46 22 38% N812 20 mph 2° @ 1235 AM 52 39 59 33 30.46" 0 0 0  
Slaton 2NE  06:00 AM 43 28 56% N47 13 mph 12° @ 0115 AM 54 43 56 45 30.47" 0 0 0  
Snyder 3E  06:00 AM 49 27 42% N912 22 mph 18° @ 0235 AM 59 49 53 42 30.43" 0 0 0  
Snyder 3SSW  06:00 AM 50 27 42% NE910 20 mph 24° @ 1221 AM 58 49 58 42 30.44" 0 0 0  
Spur 1W  06:00 AM 45 27 50% N78 23 mph 24° @ 0110 AM 58 44 57 33 30.43" 0 0 0  
St. Lawrence 5SW  06:00 AM 48 33 57% N56 22 mph 44° @ 0100 AM 62 48 57 43 30.43" 0 0 0  
Stamford 5ESE  06:00 AM 46 37 71% NW78 14 mph 12° @ 1236 AM 58 46 79 63 30.40" 0 0 0  
Sterling City 4WSW  05:55 AM 47 35 63% NW66 15 mph 30° @ 0102 AM 62 47 64 44 30.44" 0 0 0  
Stinnett 1NNW  06:00 AM 43 24 47% NW1519 23 mph 334° @ 0431 AM 46 41 56 42 30.48" 0 0 0  
Sundown 8WSW  06:00 AM 37 30 79% NW68 19 mph 28° @ 0135 AM 52 37 80 50 30.49" 0 0 0  
Sweetwater 11SW   06:00 AM 50 31 48% NE1214 23 mph 34° @ 0229 AM 56 49 68 48 30.42" 0 0 0  
Tahoka 3NNE  06:00 AM 40 28 63% N78 21 mph 29° @ 0150 AM 55 40 63 41 30.46" 0 0 0  
Tarzan 2WNW  06:00 AM 48 28 47% NE77 21 mph 33° @ 0134 AM 59 48 53 39 30.46" 0 0 0  
Tatum NM 2SW  06:00 AM 38 30 76% N78 16 mph 30° @ 0245 AM 51 37 78 59 30.51" 0 0 0  
Throckmorton 1SW  06:00 AM 49 37 63% NW69 14 mph 324° @ 0339 AM 56 49 76 60 30.38" 0 0 0  
Turkey 2WSW  06:00 AM 45 27 49% NW89 19 mph 356° @ 1235 AM 54 45 53 35 30.44" 0 0 0  
Umbarger 3NNE  06:00 AM 33 28 80% NW88 9 mph 339° @ 0351 AM 41 33 80 66 30.50" 0 0 0 26
Vigo Park  06:00 AM 32 28 82% NW99 11 mph 344° @ 0242 AM 46 32 82 49 30.49" 0 0 0 24
Wall 2E  06:00 AM 45 38 78% NW56 13 mph 53° @ 1216 AM 62 44 83 52 30.41" 0 0 0  
Weinert 2NNE  06:00 AM 46 33 61% N78 11 mph 8° @ 1255 AM 53 45 74 54 30.40" 0 0 0  
Welch  06:00 AM 45 31 58% N78 20 mph 43° @ 0151 AM 56 44 61 42 30.48" 0 0 0  
White River Lake 6NW  06:00 AM 43 25 48% NW1011 22 mph 4° @ 1250 AM 56 43 50 31 30.44" 0 0 0  
Wolfforth 6SSW  06:00 AM 41 30 65% NW66 21 mph 25° @ 0110 AM 56 41 65 36 30.48" 0 0 0  

West Texas Mesonet Home   Site Map/Menu  NWS Lubbock Soil Data  Daily Summary Page  24hr Precip  72hr Precip  Google Plot